Webcams.travel - The Webcam Community - Home
Live   Popular   Featured   New   Map
Create Account Sign in voidvoid

Add a webcamAdd a webcam

Ponte de Sôr › North-East Webcam

> > > (correct)

flyweather.net
Member since: October 2016
More webcams:

Travel webcam Mogadouro › South-West: Airport
Mogadouro
Travel webcam Bragança › North-West: Airport
Bragança
Travel webcam Benavente › North-East: AIrport, METAR: BENAV 180005Z 36004KT 17/14 Q1015
Benavente
Travel webcam Palmeira › North-East: Braga Airfield
Palmeira
Travel webcam Maia Airport › North-West
Maia Airport
Switch
Daylight
Share

<> Embed
Save
Please sign in to use this feature

About

Views: 910
Favorites: 0
Elevation: 113 m.a.s.l.
Position: Map
more ...

Feedback

Edit this webcam
Lookr Look back: 30 days
View all Lookouts in: Portalegre - Portugal

About this webcam

This webcam is currently assigned to flyweather.net. It was originally added on June 24, 2019 and has been viewed 910 times since then. The current picture above was taken 10 minutes ago, thereby the webcam seems to be currently active. So far, it was added to their personal favorites on webcams.travel by 0 people.

Weather Ponte de Sôr

Thursday
Weather
15°C / 19°C
59°F / 66°F
Friday
Weather
12°C / 20°C
54°F / 68°F
Saturday
Weather
14°C / 20°C
57°F / 68°F
powered by wetter.com

Comments

No comments on this webcam
Webcam search